createdAt,value
2019-05-14T00:01:36.863Z,103277.00
2019-05-14T00:06:41.917Z,103284.00
2019-05-14T00:11:46.481Z,103273.00
2019-05-14T00:16:51.406Z,103272.00
2019-05-14T00:21:56.056Z,103265.00
2019-05-14T00:27:02.084Z,103277.00
2019-05-14T00:32:06.778Z,103279.00
2019-05-14T00:37:11.677Z,103270.00
2019-05-14T00:42:16.425Z,103282.00
2019-05-14T00:47:21.771Z,103273.00
2019-05-14T00:52:26.314Z,103283.00
2019-05-14T00:57:31.604Z,103275.00
2019-05-14T01:02:36.226Z,103280.00
2019-05-14T01:07:42.373Z,103280.00
2019-05-14T01:12:46.959Z,103289.00
2019-05-14T01:17:51.803Z,103275.00
2019-05-14T01:22:56.324Z,103287.00
2019-05-14T01:28:02.084Z,103289.00
2019-05-14T01:33:06.839Z,103287.00
2019-05-14T01:38:11.563Z,103284.00
2019-05-14T01:43:16.139Z,103273.00
2019-05-14T01:48:21.957Z,103275.00
2019-05-14T01:53:26.577Z,103278.00
2019-05-14T01:58:31.986Z,103278.00
2019-05-14T02:03:36.484Z,103281.00
2019-05-14T02:08:41.451Z,103273.00
2019-05-14T02:13:48.435Z,103281.00
2019-05-14T02:18:52.418Z,103273.00
2019-05-14T02:23:56.796Z,103287.00
2019-05-14T02:29:02.081Z,103280.00
2019-05-14T02:34:09.914Z,103271.00
2019-05-14T02:39:12.871Z,103267.00
2019-05-14T02:44:18.862Z,103270.00
2019-05-14T02:49:23.440Z,103269.00
2019-05-14T02:54:29.722Z,103261.00
2019-05-14T02:59:34.003Z,103267.00
2019-05-14T03:04:39.532Z,103269.00
2019-05-14T03:09:44.512Z,103258.00
2019-05-14T03:14:50.269Z,103267.00
2019-05-14T03:19:55.033Z,103272.00
2019-05-14T03:24:59.896Z,103271.00
2019-05-14T03:30:05.741Z,103276.00
2019-05-14T03:35:13.202Z,103257.00
2019-05-14T03:40:19.483Z,103272.00
2019-05-14T03:45:23.299Z,103269.00
2019-05-14T03:50:29.831Z,103260.00
2019-05-14T03:55:34.034Z,103255.00
2019-05-14T04:00:52.042Z,103253.00
2019-05-14T04:05:59.552Z,103264.00
2019-05-14T04:11:04.452Z,103264.00
2019-05-14T04:16:11.696Z,103271.00
2019-05-14T04:21:20.261Z,103262.00
2019-05-14T04:26:24.084Z,103266.00
2019-05-14T04:31:32.761Z,103264.00
2019-05-14T04:36:39.249Z,103264.00
2019-05-14T04:41:43.903Z,103260.00
2019-05-14T04:46:49.304Z,103254.00
2019-05-14T04:51:54.015Z,103249.00
2019-05-14T04:56:59.953Z,103254.00
2019-05-14T05:02:09.223Z,103266.00
2019-05-14T05:07:12.216Z,103252.00
2019-05-14T05:12:19.462Z,103271.00
2019-05-14T05:17:37.814Z,103265.00
2019-05-14T05:22:28.999Z,103263.00
2019-05-14T05:27:33.428Z,103270.00
2019-05-14T05:32:38.868Z,103270.00
2019-05-14T05:37:43.640Z,103281.00
2019-05-14T05:42:48.980Z,103276.00
2019-05-14T05:47:58.194Z,103274.00
2019-05-14T05:52:59.847Z,103269.00
2019-05-14T05:58:04.342Z,103275.00
2019-05-14T06:03:11.246Z,103279.00
2019-05-14T06:08:16.077Z,103263.00
2019-05-14T06:13:20.576Z,103255.00
2019-05-14T06:18:24.993Z,103261.00
2019-05-14T06:23:29.610Z,103264.00
2019-05-14T06:28:40.303Z,103273.00
2019-05-14T06:33:42.930Z,103280.00
2019-05-14T06:38:49.748Z,103271.00
2019-05-14T06:43:55.930Z,103274.00
2019-05-14T06:49:03.705Z,103271.00
2019-05-14T06:54:09.252Z,103264.00
2019-05-14T06:59:18.315Z,103283.00
2019-05-14T07:04:22.742Z,103275.00
2019-05-14T07:09:30.009Z,103272.00
2019-05-14T07:14:34.433Z,103258.00
2019-05-14T07:19:42.027Z,103264.00
2019-05-14T07:24:49.380Z,103272.00
2019-05-14T07:29:54.334Z,103275.00
2019-05-14T07:34:59.625Z,103276.00
2019-05-14T07:40:08.556Z,103270.00
2019-05-14T07:45:13.432Z,103264.00
2019-05-14T07:50:20.488Z,103268.00
2019-05-14T07:55:25.005Z,103258.00
2019-05-14T08:00:33.677Z,103251.00
2019-05-14T08:05:39.926Z,103247.00
2019-05-14T08:10:48.491Z,103235.00
2019-05-14T08:15:53.984Z,103243.00
2019-05-14T08:20:59.178Z,103225.00
2019-05-14T08:26:04.842Z,103227.00
2019-05-14T08:31:11.869Z,103223.00
2019-05-14T08:36:18.337Z,103224.00
2019-05-14T08:41:22.654Z,103224.00
2019-05-14T08:46:28.724Z,103222.00
2019-05-14T08:51:33.150Z,103207.00
2019-05-14T08:56:38.960Z,103203.00
2019-05-14T09:01:58.498Z,103213.00
2019-05-14T09:06:51.519Z,103206.00
2019-05-14T09:11:59.733Z,103205.00
2019-05-14T09:17:03.631Z,103213.00
2019-05-14T09:22:09.585Z,103208.00
2019-05-14T09:27:15.993Z,103197.00
2019-05-14T09:32:20.855Z,103203.00
2019-05-14T09:37:25.294Z,103193.00
2019-05-14T09:42:30.012Z,103194.00
2019-05-14T09:47:34.497Z,103191.00
2019-05-14T09:52:39.373Z,103188.00
2019-05-14T09:57:45.386Z,103186.00
2019-05-14T10:02:49.880Z,103180.00
2019-05-14T10:07:54.318Z,103183.00
2019-05-14T10:13:01.515Z,103172.00
2019-05-14T10:18:11.129Z,103176.00
2019-05-14T10:23:14.569Z,103162.00
2019-05-14T10:28:22.373Z,103161.00
2019-05-14T10:33:28.789Z,103165.00
2019-05-14T10:38:33.130Z,103155.00
2019-05-14T10:43:39.149Z,103153.00
2019-05-14T10:48:43.873Z,103145.00
2019-05-14T10:53:49.037Z,103137.00
2019-05-14T10:58:55.313Z,103128.00
2019-05-14T11:04:01.517Z,103141.00
2019-05-14T11:09:09.094Z,103131.00
2019-05-14T11:14:13.874Z,103119.00
2019-05-14T11:19:18.942Z,103120.00
2019-05-14T11:24:23.898Z,103118.00
2019-05-14T11:29:29.887Z,103109.00
2019-05-14T11:34:34.575Z,103112.00
2019-05-14T11:39:39.211Z,103105.00
2019-05-14T11:44:43.895Z,103104.00
2019-05-14T11:49:49.222Z,103100.00
2019-05-14T11:54:54.131Z,103096.00
2019-05-14T11:59:58.689Z,103093.00
2019-05-14T12:05:03.327Z,103098.00
2019-05-14T12:10:09.168Z,103092.00
2019-05-14T12:15:14.026Z,103079.00
2019-05-14T12:20:18.774Z,103078.00
2019-05-14T12:25:23.197Z,103087.00
2019-05-14T12:30:28.619Z,103074.00
2019-05-14T12:35:33.498Z,103073.00
2019-05-14T12:40:38.378Z,103068.00
2019-05-14T12:45:42.900Z,103065.00
2019-05-14T12:50:48.837Z,103051.00
2019-05-14T12:55:53.516Z,103045.00
2019-05-14T13:00:59.452Z,103049.00
2019-05-14T13:06:04.133Z,103031.00
2019-05-14T13:11:09.639Z,103030.00
2019-05-14T13:16:14.480Z,103029.00
2019-05-14T13:21:19.377Z,103041.00
2019-05-14T13:26:23.997Z,103031.00
2019-05-14T13:31:29.234Z,103019.00
2019-05-14T13:36:34.124Z,103021.00
2019-05-14T13:41:41.835Z,103013.00
2019-05-14T13:46:48.455Z,103021.00
2019-05-14T13:51:51.994Z,103008.00
2019-05-14T13:56:58.508Z,103008.00
2019-05-14T14:02:02.891Z,103002.00
2019-05-14T14:07:09.054Z,103007.00
2019-05-14T14:12:13.985Z,102995.00
2019-05-14T14:17:18.809Z,102996.00
2019-05-14T14:22:23.222Z,102982.00
2019-05-14T14:27:29.979Z,102988.00
2019-05-14T14:32:34.201Z,102968.00
2019-05-14T14:37:40.017Z,102969.00
2019-05-14T14:42:44.765Z,102967.00
2019-05-14T14:47:49.828Z,102963.00
2019-05-14T14:52:54.423Z,102963.00
2019-05-14T14:57:59.094Z,102954.00
2019-05-14T15:03:03.607Z,102955.00
2019-05-14T15:08:10.357Z,102950.00
2019-05-14T15:13:14.363Z,102954.00
2019-05-14T15:18:19.109Z,102954.00
2019-05-14T15:23:24.121Z,102946.00
2019-05-14T15:28:28.849Z,102942.00
2019-05-14T15:33:34.302Z,102932.00
2019-05-14T15:38:40.709Z,102927.00
2019-05-14T15:43:45.462Z,102931.00
2019-05-14T15:48:50.129Z,102911.00
2019-05-14T15:54:15.583Z,102921.00
2019-05-14T15:59:04.316Z,102914.00
2019-05-14T16:04:11.524Z,102911.00
2019-05-14T16:09:15.486Z,102910.00
2019-05-14T16:14:20.105Z,102905.00
2019-05-14T16:19:24.780Z,102899.00
2019-05-14T16:24:29.203Z,102896.00
2019-05-14T16:29:41.269Z,102905.00
2019-05-14T16:34:41.319Z,102891.00
2019-05-14T16:39:49.089Z,102888.00
2019-05-14T16:44:53.543Z,102888.00
2019-05-14T16:49:59.120Z,102888.00
2019-05-14T16:55:20.551Z,102887.00
2019-05-14T17:00:11.691Z,102882.00
2019-05-14T17:05:16.523Z,102883.00
2019-05-14T17:10:21.107Z,102876.00
2019-05-14T17:15:25.569Z,102882.00
2019-05-14T17:20:30.258Z,102879.00
2019-05-14T17:25:34.869Z,102874.00
2019-05-14T17:30:39.449Z,102870.00
2019-05-14T17:35:44.089Z,102865.00
2019-05-14T17:40:48.970Z,102858.00
2019-05-14T17:45:53.738Z,102847.00
2019-05-14T17:50:59.133Z,102848.00
2019-05-14T17:56:04.039Z,102854.00
2019-05-14T18:01:10.361Z,102859.00
2019-05-14T18:06:15.019Z,102859.00
2019-05-14T18:11:21.111Z,102846.00
2019-05-14T18:16:25.677Z,102849.00
2019-05-14T18:21:30.342Z,102850.00
2019-05-14T18:26:35.069Z,102846.00
2019-05-14T18:31:44.164Z,102832.00
2019-05-14T18:36:48.703Z,102831.00
2019-05-14T18:41:52.513Z,102832.00
2019-05-14T18:46:59.326Z,102834.00
2019-05-14T18:52:03.827Z,102838.00
2019-05-14T18:57:11.805Z,102832.00
2019-05-14T19:02:14.786Z,102831.00
2019-05-14T19:07:19.373Z,102836.00
2019-05-14T19:12:24.867Z,102834.00
2019-05-14T19:17:29.414Z,102833.00
2019-05-14T19:22:33.987Z,102843.00
2019-05-14T19:27:38.493Z,102850.00
2019-05-14T19:32:42.980Z,102849.00
2019-05-14T19:37:48.710Z,102853.00
2019-05-14T19:42:53.417Z,102852.00
2019-05-14T19:47:58.425Z,102833.00
2019-05-14T19:53:03.137Z,102831.00
2019-05-14T19:58:07.784Z,102827.00
2019-05-14T20:03:12.420Z,102834.00
2019-05-14T20:08:18.935Z,102825.00
2019-05-14T20:13:23.223Z,102819.00
2019-05-14T20:18:28.966Z,102814.00
2019-05-14T20:23:33.867Z,102819.00
2019-05-14T20:28:39.058Z,102817.00
2019-05-14T20:33:43.785Z,102816.00
2019-05-14T20:38:48.309Z,102828.00
2019-05-14T20:43:52.789Z,102822.00
2019-05-14T20:48:59.129Z,102823.00
2019-05-14T20:54:03.454Z,102818.00
2019-05-14T20:59:10.423Z,102823.00
2019-05-14T21:04:14.892Z,102799.00
2019-05-14T21:09:19.384Z,102809.00
2019-05-14T21:14:25.254Z,102820.00
2019-05-14T21:19:29.702Z,102805.00
2019-05-14T21:24:34.119Z,102805.00
2019-05-14T21:29:38.646Z,102807.00
2019-05-14T21:34:43.148Z,102804.00
2019-05-14T21:39:49.113Z,102803.00
2019-05-14T21:44:53.584Z,102798.00
2019-05-14T21:49:58.070Z,102794.00
2019-05-14T21:55:02.565Z,102792.00
2019-05-14T22:00:20.579Z,102786.00
2019-05-14T22:05:25.602Z,102794.00
2019-05-14T22:10:30.247Z,102793.00
2019-05-14T22:15:34.812Z,102787.00
2019-05-14T22:20:39.237Z,102800.00
2019-05-14T22:25:43.659Z,102799.00
2019-05-14T22:30:48.270Z,102788.00
2019-05-14T22:35:52.767Z,102786.00
2019-05-14T22:40:59.205Z,102800.00
2019-05-14T22:46:03.408Z,102790.00
2019-05-14T22:51:08.694Z,102791.00
2019-05-14T22:56:13.367Z,102784.00
2019-05-14T23:01:18.515Z,102777.00
2019-05-14T23:06:23.153Z,102788.00
2019-05-14T23:11:28.818Z,102777.00
2019-05-14T23:16:38.282Z,102772.00
2019-05-14T23:21:39.687Z,102771.00
2019-05-14T23:26:44.174Z,102773.00
2019-05-14T23:31:49.015Z,102776.00
2019-05-14T23:36:53.798Z,102762.00
2019-05-14T23:41:58.583Z,102761.00
2019-05-14T23:47:02.965Z,102756.00
2019-05-14T23:52:07.545Z,102749.00
2019-05-14T23:57:11.947Z,102749.00
